Tolani Lakes, Arizona
Current Conditions -  °F | °C
As of 8:56 PM on Friday 24 Oct 2014 (Local Time) from KINW Reporting Station
Clear Clear  
Wind Chill: 62°   Ceiling: Unl
Heat Index: 62°   Visibility: 10mi
Dew Point: 37°   Wind: 10mph
Humidity: 39%   Direction: 250°WSW
Pressure: 30.23"   Gusts: NA
Location:  35.1934°N, 110.361°W
Report Text: KINW 250356Z AUTO 25009KT 10SM CLR 17/03 A3023 RMK AO2 SLP191 T01670028
Loading
Personal Weather Stations






























Interactive Weather Map
Tropical Storm Tracking
New forecast layout! Learn more

10-Day Weather Forecast

Advertisements
Track Severe Weather on mobile